sensor_id;sensor_type;location;lat;lon;timestamp;P1;durP1;ratioP1;P2;durP2;ratioP2
5277;SDS011;2662;51.194;6.614;2023-02-01T00:02:24;19.30;;;8.17;;
5277;SDS011;2662;51.194;6.614;2023-02-01T00:04:51;24.20;;;8.70;;
5277;SDS011;2662;51.194;6.614;2023-02-01T00:07:18;21.60;;;8.97;;
5277;SDS011;2662;51.194;6.614;2023-02-01T00:09:44;19.30;;;7.53;;
5277;SDS011;2662;51.194;6.614;2023-02-01T00:12:12;17.43;;;7.53;;
5277;SDS011;2662;51.194;6.614;2023-02-01T00:14:39;20.00;;;7.63;;
5277;SDS011;2662;51.194;6.614;2023-02-01T00:17:06;16.57;;;7.30;;
5277;SDS011;2662;51.194;6.614;2023-02-01T00:19:32;20.77;;;7.77;;
5277;SDS011;2662;51.194;6.614;2023-02-01T00:22:00;22.57;;;7.70;;
5277;SDS011;2662;51.194;6.614;2023-02-01T00:24:26;17.13;;;6.73;;
5277;SDS011;2662;51.194;6.614;2023-02-01T00:26:53;19.93;;;6.50;;
5277;SDS011;2662;51.194;6.614;2023-02-01T00:29:22;15.93;;;6.20;;
5277;SDS011;2662;51.194;6.614;2023-02-01T00:31:49;16.33;;;6.60;;
5277;SDS011;2662;51.194;6.614;2023-02-01T00:34:17;20.17;;;6.87;;
5277;SDS011;2662;51.194;6.614;2023-02-01T00:36:44;16.00;;;6.00;;
5277;SDS011;2662;51.194;6.614;2023-02-01T00:39:12;20.27;;;6.20;;
5277;SDS011;2662;51.194;6.614;2023-02-01T00:41:39;19.10;;;7.10;;
5277;SDS011;2662;51.194;6.614;2023-02-01T00:44:06;18.73;;;5.93;;
5277;SDS011;2662;51.194;6.614;2023-02-01T00:46:34;16.60;;;5.70;;
5277;SDS011;2662;51.194;6.614;2023-02-01T00:49:01;21.47;;;5.77;;
5277;SDS011;2662;51.194;6.614;2023-02-01T00:51:28;18.13;;;5.57;;
5277;SDS011;2662;51.194;6.614;2023-02-01T00:53:55;6.27;;;3.50;;
5277;SDS011;2662;51.194;6.614;2023-02-01T00:56:22;14.00;;;4.27;;
5277;SDS011;2662;51.194;6.614;2023-02-01T00:58:49;14.10;;;4.70;;
5277;SDS011;2662;51.194;6.614;2023-02-01T01:01:17;24.83;;;4.70;;
5277;SDS011;2662;51.194;6.614;2023-02-01T01:03:47;20.90;;;4.37;;
5277;SDS011;2662;51.194;6.614;2023-02-01T01:06:16;20.47;;;4.67;;
5277;SDS011;2662;51.194;6.614;2023-02-01T01:08:43;15.50;;;3.60;;
5277;SDS011;2662;51.194;6.614;2023-02-01T01:11:11;16.00;;;4.20;;
5277;SDS011;2662;51.194;6.614;2023-02-01T01:13:40;14.93;;;3.60;;
5277;SDS011;2662;51.194;6.614;2023-02-01T01:16:07;14.30;;;4.00;;
5277;SDS011;2662;51.194;6.614;2023-02-01T01:18:35;12.30;;;3.17;;
5277;SDS011;2662;51.194;6.614;2023-02-01T01:21:04;10.87;;;3.30;;
5277;SDS011;2662;51.194;6.614;2023-02-01T01:23:32;15.60;;;3.70;;
5277;SDS011;2662;51.194;6.614;2023-02-01T01:25:59;13.80;;;3.27;;
5277;SDS011;2662;51.194;6.614;2023-02-01T01:28:26;19.53;;;3.67;;
5277;SDS011;2662;51.194;6.614;2023-02-01T01:30:53;12.53;;;2.90;;
5277;SDS011;2662;51.194;6.614;2023-02-01T01:33:19;14.93;;;3.60;;
5277;SDS011;2662;51.194;6.614;2023-02-01T01:35:46;11.60;;;2.93;;
5277;SDS011;2662;51.194;6.614;2023-02-01T01:38:14;15.20;;;3.87;;
5277;SDS011;2662;51.194;6.614;2023-02-01T01:40:44;13.43;;;3.27;;
5277;SDS011;2662;51.194;6.614;2023-02-01T01:43:12;9.10;;;2.70;;
5277;SDS011;2662;51.194;6.614;2023-02-01T01:45:40;9.93;;;2.87;;
5277;SDS011;2662;51.194;6.614;2023-02-01T01:48:08;20.43;;;3.20;;
5277;SDS011;2662;51.194;6.614;2023-02-01T01:50:40;18.10;;;3.13;;
5277;SDS011;2662;51.194;6.614;2023-02-01T01:53:11;11.43;;;2.33;;
5277;SDS011;2662;51.194;6.614;2023-02-01T01:55:41;7.03;;;2.20;;
5277;SDS011;2662;51.194;6.614;2023-02-01T01:58:10;7.97;;;2.90;;
5277;SDS011;2662;51.194;6.614;2023-02-01T02:00:40;10.23;;;2.80;;
5277;SDS011;2662;51.194;6.614;2023-02-01T02:03:08;15.83;;;2.90;;
5277;SDS011;2662;51.194;6.614;2023-02-01T02:05:41;15.87;;;2.60;;
5277;SDS011;2662;51.194;6.614;2023-02-01T02:08:08;13.60;;;3.10;;
5277;SDS011;2662;51.194;6.614;2023-02-01T02:10:35;20.43;;;3.10;;
5277;SDS011;2662;51.194;6.614;2023-02-01T02:13:21;7.10;;;2.30;;
5277;SDS011;2662;51.194;6.614;2023-02-01T02:15:51;12.80;;;3.20;;
5277;SDS011;2662;51.194;6.614;2023-02-01T02:18:29;15.90;;;3.10;;
5277;SDS011;2662;51.194;6.614;2023-02-01T02:21:14;9.70;;;2.70;;
5277;SDS011;2662;51.194;6.614;2023-02-01T02:23:52;11.53;;;2.60;;
5277;SDS011;2662;51.194;6.614;2023-02-01T02:26:40;15.30;;;2.60;;
5277;SDS011;2662;51.194;6.614;2023-02-01T02:36:07;11.60;;;2.37;;
5277;SDS011;2662;51.194;6.614;2023-02-01T02:38:40;13.37;;;2.70;;
5277;SDS011;2662;51.194;6.614;2023-02-01T02:41:13;11.47;;;2.83;;
5277;SDS011;2662;51.194;6.614;2023-02-01T02:44:07;6.43;;;2.30;;
5277;SDS011;2662;51.194;6.614;2023-02-01T02:47:09;10.63;;;2.70;;
5277;SDS011;2662;51.194;6.614;2023-02-01T02:49:54;11.47;;;3.40;;
5277;SDS011;2662;51.194;6.614;2023-02-01T02:52:44;16.33;;;3.30;;
5277;SDS011;2662;51.194;6.614;2023-02-01T02:55:35;14.30;;;2.83;;
5277;SDS011;2662;51.194;6.614;2023-02-01T02:58:05;9.77;;;2.87;;
5277;SDS011;2662;51.194;6.614;2023-02-01T03:00:52;12.17;;;3.30;;
5277;SDS011;2662;51.194;6.614;2023-02-01T03:03:38;19.63;;;3.87;;
5277;SDS011;2662;51.194;6.614;2023-02-01T03:06:23;21.40;;;3.23;;
5277;SDS011;2662;51.194;6.614;2023-02-01T03:08:52;19.03;;;3.30;;
5277;SDS011;2662;51.194;6.614;2023-02-01T03:11:23;20.97;;;3.70;;
5277;SDS011;2662;51.194;6.614;2023-02-01T03:14:11;19.63;;;3.60;;
5277;SDS011;2662;51.194;6.614;2023-02-01T03:16:40;13.50;;;2.67;;
5277;SDS011;2662;51.194;6.614;2023-02-01T03:19:11;12.20;;;2.60;;
5277;SDS011;2662;51.194;6.614;2023-02-01T03:21:43;23.20;;;4.07;;
5277;SDS011;2662;51.194;6.614;2023-02-01T03:24:14;19.73;;;3.67;;
5277;SDS011;2662;51.194;6.614;2023-02-01T03:26:47;15.07;;;2.80;;
5277;SDS011;2662;51.194;6.614;2023-02-01T03:29:18;16.73;;;3.13;;
5277;SDS011;2662;51.194;6.614;2023-02-01T03:31:50;11.33;;;3.07;;
5277;SDS011;2662;51.194;6.614;2023-02-01T03:34:17;14.47;;;2.83;;
5277;SDS011;2662;51.194;6.614;2023-02-01T03:36:46;19.20;;;3.97;;
5277;SDS011;2662;51.194;6.614;2023-02-01T03:39:19;13.00;;;3.03;;
5277;SDS011;2662;51.194;6.614;2023-02-01T03:41:51;16.13;;;2.90;;
5277;SDS011;2662;51.194;6.614;2023-02-01T03:44:22;24.53;;;3.20;;
5277;SDS011;2662;51.194;6.614;2023-02-01T03:46:52;12.50;;;2.60;;
5277;SDS011;2662;51.194;6.614;2023-02-01T03:49:24;14.40;;;2.87;;
5277;SDS011;2662;51.194;6.614;2023-02-01T03:51:54;12.13;;;3.20;;
5277;SDS011;2662;51.194;6.614;2023-02-01T03:54:24;18.97;;;2.47;;
5277;SDS011;2662;51.194;6.614;2023-02-01T03:56:52;10.47;;;2.37;;
5277;SDS011;2662;51.194;6.614;2023-02-01T03:59:22;17.33;;;2.43;;
5277;SDS011;2662;51.194;6.614;2023-02-01T04:01:49;12.33;;;2.77;;
5277;SDS011;2662;51.194;6.614;2023-02-01T04:04:18;26.67;;;3.13;;
5277;SDS011;2662;51.194;6.614;2023-02-01T04:06:45;6.93;;;2.50;;
5277;SDS011;2662;51.194;6.614;2023-02-01T04:09:12;9.17;;;1.90;;
5277;SDS011;2662;51.194;6.614;2023-02-01T04:11:40;8.80;;;2.80;;
5277;SDS011;2662;51.194;6.614;2023-02-01T04:14:07;13.33;;;2.67;;
5277;SDS011;2662;51.194;6.614;2023-02-01T04:16:34;12.73;;;3.27;;
5277;SDS011;2662;51.194;6.614;2023-02-01T04:19:01;16.00;;;3.73;;
5277;SDS011;2662;51.194;6.614;2023-02-01T04:21:28;11.53;;;3.07;;
5277;SDS011;2662;51.194;6.614;2023-02-01T04:23:55;16.17;;;3.60;;
5277;SDS011;2662;51.194;6.614;2023-02-01T04:26:22;17.10;;;2.73;;
5277;SDS011;2662;51.194;6.614;2023-02-01T04:28:50;13.00;;;2.43;;
5277;SDS011;2662;51.194;6.614;2023-02-01T04:31:18;12.63;;;2.43;;
5277;SDS011;2662;51.194;6.614;2023-02-01T04:33:50;12.10;;;2.60;;
5277;SDS011;2662;51.194;6.614;2023-02-01T04:36:17;13.67;;;2.37;;
5277;SDS011;2662;51.194;6.614;2023-02-01T04:38:46;19.83;;;3.43;;
5277;SDS011;2662;51.194;6.614;2023-02-01T04:41:13;20.03;;;3.37;;
5277;SDS011;2662;51.194;6.614;2023-02-01T04:43:40;13.40;;;3.20;;
5277;SDS011;2662;51.194;6.614;2023-02-01T04:46:08;20.77;;;2.80;;
5277;SDS011;2662;51.194;6.614;2023-02-01T04:48:35;12.57;;;3.13;;
5277;SDS011;2662;51.194;6.614;2023-02-01T04:51:02;21.53;;;3.37;;
5277;SDS011;2662;51.194;6.614;2023-02-01T04:53:29;27.23;;;3.40;;
5277;SDS011;2662;51.194;6.614;2023-02-01T04:55:55;14.83;;;2.60;;
5277;SDS011;2662;51.194;6.614;2023-02-01T04:58:22;9.70;;;3.00;;
5277;SDS011;2662;51.194;6.614;2023-02-01T05:00:49;10.20;;;2.90;;
5277;SDS011;2662;51.194;6.614;2023-02-01T05:03:18;10.77;;;2.97;;
5277;SDS011;2662;51.194;6.614;2023-02-01T05:05:46;11.27;;;2.47;;
5277;SDS011;2662;51.194;6.614;2023-02-01T05:08:13;17.00;;;2.80;;
5277;SDS011;2662;51.194;6.614;2023-02-01T05:10:40;16.33;;;3.37;;
5277;SDS011;2662;51.194;6.614;2023-02-01T05:13:07;32.57;;;3.20;;
5277;SDS011;2662;51.194;6.614;2023-02-01T05:15:52;12.87;;;2.90;;
5277;SDS011;2662;51.194;6.614;2023-02-01T05:18:20;12.07;;;2.77;;
5277;SDS011;2662;51.194;6.614;2023-02-01T05:20:46;17.87;;;2.57;;
5277;SDS011;2662;51.194;6.614;2023-02-01T05:23:13;18.80;;;3.33;;
5277;SDS011;2662;51.194;6.614;2023-02-01T05:25:40;10.83;;;2.40;;
5277;SDS011;2662;51.194;6.614;2023-02-01T05:28:07;14.27;;;3.00;;
5277;SDS011;2662;51.194;6.614;2023-02-01T05:30:33;13.77;;;2.73;;
5277;SDS011;2662;51.194;6.614;2023-02-01T05:33:00;11.47;;;2.80;;
5277;SDS011;2662;51.194;6.614;2023-02-01T05:35:28;10.23;;;2.53;;
5277;SDS011;2662;51.194;6.614;2023-02-01T05:37:55;25.77;;;2.97;;
5277;SDS011;2662;51.194;6.614;2023-02-01T05:40:22;19.40;;;3.07;;
5277;SDS011;2662;51.194;6.614;2023-02-01T05:42:49;16.93;;;3.20;;
5277;SDS011;2662;51.194;6.614;2023-02-01T05:45:15;12.80;;;3.70;;
5277;SDS011;2662;51.194;6.614;2023-02-01T05:47:42;12.60;;;3.00;;
5277;SDS011;2662;51.194;6.614;2023-02-01T05:50:09;23.93;;;3.10;;
5277;SDS011;2662;51.194;6.614;2023-02-01T05:52:37;15.57;;;3.43;;
5277;SDS011;2662;51.194;6.614;2023-02-01T05:55:04;22.23;;;3.40;;
5277;SDS011;2662;51.194;6.614;2023-02-01T05:57:31;16.00;;;3.03;;
5277;SDS011;2662;51.194;6.614;2023-02-01T05:59:58;20.30;;;2.67;;
5277;SDS011;2662;51.194;6.614;2023-02-01T06:02:25;14.30;;;2.97;;
5277;SDS011;2662;51.194;6.614;2023-02-01T06:04:51;26.63;;;2.87;;
5277;SDS011;2662;51.194;6.614;2023-02-01T06:07:18;12.97;;;2.43;;
5277;SDS011;2662;51.194;6.614;2023-02-01T06:09:46;12.00;;;2.70;;
5277;SDS011;2662;51.194;6.614;2023-02-01T06:12:13;9.03;;;2.70;;
5277;SDS011;2662;51.194;6.614;2023-02-01T06:14:39;20.33;;;3.67;;
5277;SDS011;2662;51.194;6.614;2023-02-01T06:17:08;10.40;;;2.40;;
5277;SDS011;2662;51.194;6.614;2023-02-01T06:19:35;12.97;;;2.57;;
5277;SDS011;2662;51.194;6.614;2023-02-01T06:22:01;11.50;;;2.30;;
5277;SDS011;2662;51.194;6.614;2023-02-01T06:24:31;16.60;;;2.73;;
5277;SDS011;2662;51.194;6.614;2023-02-01T06:26:59;9.30;;;2.97;;
5277;SDS011;2662;51.194;6.614;2023-02-01T06:29:26;10.60;;;2.47;;
5277;SDS011;2662;51.194;6.614;2023-02-01T06:31:52;29.03;;;3.60;;
5277;SDS011;2662;51.194;6.614;2023-02-01T06:34:19;10.03;;;2.40;;
5277;SDS011;2662;51.194;6.614;2023-02-01T06:36:47;10.70;;;2.90;;
5277;SDS011;2662;51.194;6.614;2023-02-01T06:39:14;15.53;;;2.53;;
5277;SDS011;2662;51.194;6.614;2023-02-01T06:41:41;16.53;;;2.80;;
5277;SDS011;2662;51.194;6.614;2023-02-01T06:44:10;18.50;;;2.73;;
5277;SDS011;2662;51.194;6.614;2023-02-01T06:46:36;18.80;;;2.27;;
5277;SDS011;2662;51.194;6.614;2023-02-01T06:49:03;13.90;;;3.00;;
5277;SDS011;2662;51.194;6.614;2023-02-01T06:51:30;20.07;;;2.30;;
5277;SDS011;2662;51.194;6.614;2023-02-01T06:53:56;21.80;;;3.10;;
5277;SDS011;2662;51.194;6.614;2023-02-01T06:56:24;22.77;;;3.30;;
5277;SDS011;2662;51.194;6.614;2023-02-01T06:58:51;26.70;;;2.80;;
5277;SDS011;2662;51.194;6.614;2023-02-01T07:01:19;19.37;;;2.63;;
5277;SDS011;2662;51.194;6.614;2023-02-01T07:03:47;9.70;;;2.70;;
5277;SDS011;2662;51.194;6.614;2023-02-01T07:06:14;18.33;;;3.00;;
5277;SDS011;2662;51.194;6.614;2023-02-01T07:08:42;22.37;;;3.33;;
5277;SDS011;2662;51.194;6.614;2023-02-01T07:11:10;17.17;;;3.00;;
5277;SDS011;2662;51.194;6.614;2023-02-01T07:13:39;18.07;;;3.23;;
5277;SDS011;2662;51.194;6.614;2023-02-01T07:16:07;20.73;;;2.93;;
5277;SDS011;2662;51.194;6.614;2023-02-01T07:18:37;13.03;;;2.60;;
5277;SDS011;2662;51.194;6.614;2023-02-01T07:21:04;14.90;;;2.53;;
5277;SDS011;2662;51.194;6.614;2023-02-01T07:23:31;13.83;;;2.63;;
5277;SDS011;2662;51.194;6.614;2023-02-01T07:25:59;15.07;;;2.67;;
5277;SDS011;2662;51.194;6.614;2023-02-01T07:28:28;15.73;;;2.77;;
5277;SDS011;2662;51.194;6.614;2023-02-01T07:31:01;13.57;;;2.83;;
5277;SDS011;2662;51.194;6.614;2023-02-01T07:33:28;13.70;;;2.63;;
5277;SDS011;2662;51.194;6.614;2023-02-01T07:35:56;24.23;;;3.30;;
5277;SDS011;2662;51.194;6.614;2023-02-01T07:38:23;12.93;;;2.93;;
5277;SDS011;2662;51.194;6.614;2023-02-01T07:40:50;16.60;;;2.83;;
5277;SDS011;2662;51.194;6.614;2023-02-01T07:43:17;14.80;;;2.93;;
5277;SDS011;2662;51.194;6.614;2023-02-01T07:45:49;14.73;;;3.37;;
5277;SDS011;2662;51.194;6.614;2023-02-01T07:48:17;15.70;;;2.53;;
5277;SDS011;2662;51.194;6.614;2023-02-01T07:50:44;5.87;;;2.03;;
5277;SDS011;2662;51.194;6.614;2023-02-01T07:53:12;15.13;;;3.60;;
5277;SDS011;2662;51.194;6.614;2023-02-01T07:55:38;14.27;;;3.60;;
5277;SDS011;2662;51.194;6.614;2023-02-01T07:58:05;16.40;;;2.87;;
5277;SDS011;2662;51.194;6.614;2023-02-01T08:00:32;19.10;;;3.33;;
5277;SDS011;2662;51.194;6.614;2023-02-01T08:03:16;10.80;;;2.80;;
5277;SDS011;2662;51.194;6.614;2023-02-01T08:05:43;22.33;;;4.57;;
5277;SDS011;2662;51.194;6.614;2023-02-01T08:08:10;11.47;;;2.50;;
5277;SDS011;2662;51.194;6.614;2023-02-01T08:10:38;20.33;;;3.67;;
5277;SDS011;2662;51.194;6.614;2023-02-01T08:13:04;12.47;;;2.83;;
5277;SDS011;2662;51.194;6.614;2023-02-01T08:15:31;19.20;;;3.10;;
5277;SDS011;2662;51.194;6.614;2023-02-01T08:17:58;12.57;;;3.00;;
5277;SDS011;2662;51.194;6.614;2023-02-01T08:20:24;17.10;;;3.20;;
5277;SDS011;2662;51.194;6.614;2023-02-01T08:22:51;20.77;;;3.33;;
5277;SDS011;2662;51.194;6.614;2023-02-01T08:25:20;15.40;;;3.03;;
5277;SDS011;2662;51.194;6.614;2023-02-01T08:27:47;16.37;;;3.53;;
5277;SDS011;2662;51.194;6.614;2023-02-01T08:30:14;19.67;;;3.50;;
5277;SDS011;2662;51.194;6.614;2023-02-01T08:32:41;18.90;;;4.20;;
5277;SDS011;2662;51.194;6.614;2023-02-01T08:35:08;11.93;;;3.20;;
5277;SDS011;2662;51.194;6.614;2023-02-01T08:37:35;31.93;;;4.03;;
5277;SDS011;2662;51.194;6.614;2023-02-01T08:40:02;9.77;;;3.00;;
5277;SDS011;2662;51.194;6.614;2023-02-01T08:42:31;15.90;;;3.27;;
5277;SDS011;2662;51.194;6.614;2023-02-01T08:45:16;9.60;;;2.57;;
5277;SDS011;2662;51.194;6.614;2023-02-01T08:47:43;12.87;;;3.33;;
5277;SDS011;2662;51.194;6.614;2023-02-01T08:50:12;15.23;;;2.90;;
5277;SDS011;2662;51.194;6.614;2023-02-01T08:52:39;19.97;;;2.80;;
5277;SDS011;2662;51.194;6.614;2023-02-01T08:55:06;19.63;;;3.73;;
5277;SDS011;2662;51.194;6.614;2023-02-01T08:57:35;15.93;;;3.40;;
5277;SDS011;2662;51.194;6.614;2023-02-01T09:00:05;18.87;;;3.50;;
5277;SDS011;2662;51.194;6.614;2023-02-01T09:02:34;13.70;;;2.67;;
5277;SDS011;2662;51.194;6.614;2023-02-01T09:05:01;15.37;;;3.00;;
5277;SDS011;2662;51.194;6.614;2023-02-01T09:07:29;14.33;;;2.57;;
5277;SDS011;2662;51.194;6.614;2023-02-01T09:09:55;13.27;;;2.70;;
5277;SDS011;2662;51.194;6.614;2023-02-01T09:12:25;21.33;;;2.90;;
5277;SDS011;2662;51.194;6.614;2023-02-01T09:14:54;8.80;;;2.60;;
5277;SDS011;2662;51.194;6.614;2023-02-01T09:17:21;19.73;;;3.50;;
5277;SDS011;2662;51.194;6.614;2023-02-01T09:19:48;19.50;;;3.10;;
5277;SDS011;2662;51.194;6.614;2023-02-01T09:22:15;13.93;;;2.80;;
5277;SDS011;2662;51.194;6.614;2023-02-01T09:24:42;11.87;;;2.63;;
5277;SDS011;2662;51.194;6.614;2023-02-01T09:27:09;8.83;;;2.30;;
5277;SDS011;2662;51.194;6.614;2023-02-01T09:29:36;21.87;;;3.47;;
5277;SDS011;2662;51.194;6.614;2023-02-01T09:32:04;8.03;;;2.60;;
5277;SDS011;2662;51.194;6.614;2023-02-01T09:34:32;16.77;;;2.53;;
5277;SDS011;2662;51.194;6.614;2023-02-01T09:36:59;21.93;;;3.37;;
5277;SDS011;2662;51.194;6.614;2023-02-01T09:39:26;16.30;;;3.50;;
5277;SDS011;2662;51.194;6.614;2023-02-01T09:41:57;15.87;;;3.10;;
5277;SDS011;2662;51.194;6.614;2023-02-01T09:44:44;15.83;;;2.93;;
5277;SDS011;2662;51.194;6.614;2023-02-01T09:47:24;17.93;;;2.70;;
5277;SDS011;2662;51.194;6.614;2023-02-01T09:49:54;20.73;;;3.83;;
5277;SDS011;2662;51.194;6.614;2023-02-01T09:52:27;18.47;;;3.40;;
5277;SDS011;2662;51.194;6.614;2023-02-01T09:55:01;9.73;;;3.00;;
5277;SDS011;2662;51.194;6.614;2023-02-01T09:57:33;17.43;;;3.37;;
5277;SDS011;2662;51.194;6.614;2023-02-01T10:00:13;11.23;;;3.70;;
5277;SDS011;2662;51.194;6.614;2023-02-01T10:02:45;19.13;;;3.23;;
5277;SDS011;2662;51.194;6.614;2023-02-01T10:05:12;13.13;;;3.03;;
5277;SDS011;2662;51.194;6.614;2023-02-01T10:07:42;16.20;;;3.33;;
5277;SDS011;2662;51.194;6.614;2023-02-01T10:10:18;12.47;;;3.23;;
5277;SDS011;2662;51.194;6.614;2023-02-01T10:15:52;17.10;;;3.60;;
5277;SDS011;2662;51.194;6.614;2023-02-01T10:18:37;16.10;;;3.70;;
5277;SDS011;2662;51.194;6.614;2023-02-01T10:21:16;14.30;;;3.83;;
5277;SDS011;2662;51.194;6.614;2023-02-01T10:24:02;21.87;;;3.80;;
5277;SDS011;2662;51.194;6.614;2023-02-01T10:26:40;17.23;;;2.90;;
5277;SDS011;2662;51.194;6.614;2023-02-01T10:29:12;16.10;;;3.00;;
5277;SDS011;2662;51.194;6.614;2023-02-01T10:31:44;10.40;;;2.57;;
5277;SDS011;2662;51.194;6.614;2023-02-01T10:34:15;18.73;;;3.47;;
5277;SDS011;2662;51.194;6.614;2023-02-01T10:36:50;10.93;;;3.30;;
5277;SDS011;2662;51.194;6.614;2023-02-01T10:39:20;19.57;;;3.50;;
5277;SDS011;2662;51.194;6.614;2023-02-01T10:41:48;19.80;;;2.57;;
5277;SDS011;2662;51.194;6.614;2023-02-01T10:44:15;12.37;;;2.77;;
5277;SDS011;2662;51.194;6.614;2023-02-01T10:46:47;13.00;;;2.83;;
5277;SDS011;2662;51.194;6.614;2023-02-01T10:49:18;8.43;;;2.57;;
5277;SDS011;2662;51.194;6.614;2023-02-01T10:51:48;14.50;;;2.80;;
5277;SDS011;2662;51.194;6.614;2023-02-01T10:54:21;12.33;;;2.80;;
5277;SDS011;2662;51.194;6.614;2023-02-01T10:56:57;20.27;;;4.10;;
5277;SDS011;2662;51.194;6.614;2023-02-01T10:59:25;12.87;;;2.50;;
5277;SDS011;2662;51.194;6.614;2023-02-01T11:01:57;12.07;;;2.83;;
5277;SDS011;2662;51.194;6.614;2023-02-01T11:04:27;11.00;;;2.53;;
5277;SDS011;2662;51.194;6.614;2023-02-01T11:07:04;13.60;;;2.10;;
5277;SDS011;2662;51.194;6.614;2023-02-01T11:09:33;18.53;;;3.50;;
5277;SDS011;2662;51.194;6.614;2023-02-01T11:12:04;11.83;;;2.70;;
5277;SDS011;2662;51.194;6.614;2023-02-01T11:14:46;13.13;;;2.63;;
5277;SDS011;2662;51.194;6.614;2023-02-01T11:17:17;9.10;;;2.90;;
5277;SDS011;2662;51.194;6.614;2023-02-01T11:19:57;11.23;;;2.43;;
5277;SDS011;2662;51.194;6.614;2023-02-01T11:22:25;11.23;;;3.00;;
5277;SDS011;2662;51.194;6.614;2023-02-01T11:24:54;10.93;;;2.50;;
5277;SDS011;2662;51.194;6.614;2023-02-01T11:27:22;14.23;;;2.60;;
5277;SDS011;2662;51.194;6.614;2023-02-01T11:29:51;10.13;;;2.50;;
5277;SDS011;2662;51.194;6.614;2023-02-01T11:32:21;15.37;;;2.90;;
5277;SDS011;2662;51.194;6.614;2023-02-01T11:34:51;10.03;;;2.53;;
5277;SDS011;2662;51.194;6.614;2023-02-01T11:37:29;13.00;;;3.00;;
5277;SDS011;2662;51.194;6.614;2023-02-01T11:39:58;11.70;;;2.57;;
5277;SDS011;2662;51.194;6.614;2023-02-01T11:42:27;13.37;;;2.80;;
5277;SDS011;2662;51.194;6.614;2023-02-01T11:45:09;11.77;;;2.90;;
5277;SDS011;2662;51.194;6.614;2023-02-01T11:47:44;10.73;;;2.40;;
5277;SDS011;2662;51.194;6.614;2023-02-01T11:50:13;16.27;;;3.50;;
5277;SDS011;2662;51.194;6.614;2023-02-01T11:52:51;13.13;;;2.83;;
5277;SDS011;2662;51.194;6.614;2023-02-01T11:55:36;14.03;;;2.27;;
5277;SDS011;2662;51.194;6.614;2023-02-01T11:58:23;14.80;;;2.70;;
5277;SDS011;2662;51.194;6.614;2023-02-01T12:01:04;10.03;;;3.57;;
5277;SDS011;2662;51.194;6.614;2023-02-01T12:03:41;9.80;;;2.43;;
5277;SDS011;2662;51.194;6.614;2023-02-01T12:06:36;11.57;;;2.20;;
5277;SDS011;2662;51.194;6.614;2023-02-01T12:12:08;13.83;;;2.67;;
5277;SDS011;2662;51.194;6.614;2023-02-01T12:14:49;17.07;;;3.73;;
5277;SDS011;2662;51.194;6.614;2023-02-01T12:17:42;16.27;;;2.93;;
5277;SDS011;2662;51.194;6.614;2023-02-01T12:20:26;18.20;;;3.17;;
5277;SDS011;2662;51.194;6.614;2023-02-01T12:23:04;12.03;;;3.30;;
5277;SDS011;2662;51.194;6.614;2023-02-01T12:25:41;8.50;;;2.83;;
5277;SDS011;2662;51.194;6.614;2023-02-01T12:28:32;12.30;;;3.03;;
5277;SDS011;2662;51.194;6.614;2023-02-01T12:31:10;13.03;;;3.27;;
5277;SDS011;2662;51.194;6.614;2023-02-01T12:33:53;15.97;;;3.00;;
5277;SDS011;2662;51.194;6.614;2023-02-01T12:36:32;18.17;;;3.70;;
5277;SDS011;2662;51.194;6.614;2023-02-01T12:39:07;12.57;;;3.13;;
5277;SDS011;2662;51.194;6.614;2023-02-01T12:41:48;7.70;;;2.27;;
5277;SDS011;2662;51.194;6.614;2023-02-01T12:44:24;11.70;;;3.33;;
5277;SDS011;2662;51.194;6.614;2023-02-01T12:46:57;14.03;;;2.70;;
5277;SDS011;2662;51.194;6.614;2023-02-01T12:49:31;10.10;;;2.70;;
5277;SDS011;2662;51.194;6.614;2023-02-01T12:52:10;10.30;;;2.57;;
5277;SDS011;2662;51.194;6.614;2023-02-01T12:54:40;14.83;;;2.23;;
5277;SDS011;2662;51.194;6.614;2023-02-01T12:57:12;6.87;;;2.50;;
5277;SDS011;2662;51.194;6.614;2023-02-01T12:59:44;14.07;;;2.70;;
5277;SDS011;2662;51.194;6.614;2023-02-01T13:02:19;10.13;;;2.43;;
5277;SDS011;2662;51.194;6.614;2023-02-01T13:04:53;12.13;;;2.63;;
5277;SDS011;2662;51.194;6.614;2023-02-01T13:07:29;10.00;;;2.70;;
5277;SDS011;2662;51.194;6.614;2023-02-01T13:10:01;11.20;;;2.43;;
5277;SDS011;2662;51.194;6.614;2023-02-01T13:12:34;12.07;;;2.20;;
5277;SDS011;2662;51.194;6.614;2023-02-01T13:15:05;13.23;;;2.10;;
5277;SDS011;2662;51.194;6.614;2023-02-01T13:17:39;13.93;;;2.27;;
5277;SDS011;2662;51.194;6.614;2023-02-01T13:20:13;8.93;;;2.20;;
5277;SDS011;2662;51.194;6.614;2023-02-01T13:22:46;12.50;;;2.60;;
5277;SDS011;2662;51.194;6.614;2023-02-01T13:25:17;6.40;;;2.20;;
5277;SDS011;2662;51.194;6.614;2023-02-01T13:27:54;14.00;;;2.47;;
5277;SDS011;2662;51.194;6.614;2023-02-01T13:30:23;5.50;;;2.17;;
5277;SDS011;2662;51.194;6.614;2023-02-01T13:32:56;9.53;;;2.17;;
5277;SDS011;2662;51.194;6.614;2023-02-01T13:35:49;14.30;;;2.50;;
5277;SDS011;2662;51.194;6.614;2023-02-01T13:38:38;10.80;;;2.47;;
5277;SDS011;2662;51.194;6.614;2023-02-01T13:41:26;9.50;;;2.13;;
5277;SDS011;2662;51.194;6.614;2023-02-01T13:43:57;12.60;;;2.20;;
5277;SDS011;2662;51.194;6.614;2023-02-01T13:46:27;19.17;;;2.27;;
5277;SDS011;2662;51.194;6.614;2023-02-01T13:48:56;9.73;;;2.40;;
5277;SDS011;2662;51.194;6.614;2023-02-01T13:51:33;10.83;;;2.47;;
5277;SDS011;2662;51.194;6.614;2023-02-01T13:54:03;5.57;;;1.90;;
5277;SDS011;2662;51.194;6.614;2023-02-01T13:56:39;20.03;;;2.20;;
5277;SDS011;2662;51.194;6.614;2023-02-01T14:05:09;7.23;;;1.60;;
5277;SDS011;2662;51.194;6.614;2023-02-01T14:07:41;8.37;;;1.33;;
5277;SDS011;2662;51.194;6.614;2023-02-01T14:10:47;12.50;;;2.83;;
5277;SDS011;2662;51.194;6.614;2023-02-01T14:13:22;15.93;;;1.90;;
5277;SDS011;2662;51.194;6.614;2023-02-01T14:16:11;6.33;;;1.97;;
5277;SDS011;2662;51.194;6.614;2023-02-01T14:21:45;13.70;;;2.63;;
5277;SDS011;2662;51.194;6.614;2023-02-01T14:24:16;9.33;;;2.23;;
5277;SDS011;2662;51.194;6.614;2023-02-01T14:26:49;15.87;;;2.77;;
5277;SDS011;2662;51.194;6.614;2023-02-01T14:29:25;4.03;;;1.50;;
5277;SDS011;2662;51.194;6.614;2023-02-01T14:32:00;8.90;;;2.13;;
5277;SDS011;2662;51.194;6.614;2023-02-01T14:34:31;4.83;;;1.27;;
5277;SDS011;2662;51.194;6.614;2023-02-01T14:37:09;13.10;;;2.47;;
5277;SDS011;2662;51.194;6.614;2023-02-01T14:39:47;6.73;;;1.90;;
5277;SDS011;2662;51.194;6.614;2023-02-01T14:42:19;13.33;;;2.10;;
5277;SDS011;2662;51.194;6.614;2023-02-01T14:44:50;16.07;;;3.00;;
5277;SDS011;2662;51.194;6.614;2023-02-01T14:53:03;9.63;;;1.77;;
5277;SDS011;2662;51.194;6.614;2023-02-01T14:55:37;9.73;;;2.10;;
5277;SDS011;2662;51.194;6.614;2023-02-01T14:58:15;10.67;;;1.30;;
5277;SDS011;2662;51.194;6.614;2023-02-01T15:00:47;16.77;;;2.10;;
5277;SDS011;2662;51.194;6.614;2023-02-01T15:03:25;6.13;;;1.90;;
5277;SDS011;2662;51.194;6.614;2023-02-01T15:06:03;9.77;;;1.90;;
5277;SDS011;2662;51.194;6.614;2023-02-01T15:08:32;9.50;;;1.83;;
5277;SDS011;2662;51.194;6.614;2023-02-01T15:11:02;11.53;;;1.97;;
5277;SDS011;2662;51.194;6.614;2023-02-01T15:13:32;7.83;;;2.00;;
5277;SDS011;2662;51.194;6.614;2023-02-01T15:15:59;11.63;;;2.70;;
5277;SDS011;2662;51.194;6.614;2023-02-01T15:18:27;7.60;;;1.80;;
5277;SDS011;2662;51.194;6.614;2023-02-01T15:20:57;15.07;;;1.90;;
5277;SDS011;2662;51.194;6.614;2023-02-01T15:23:25;16.60;;;2.30;;
5277;SDS011;2662;51.194;6.614;2023-02-01T15:25:54;11.47;;;1.77;;
5277;SDS011;2662;51.194;6.614;2023-02-01T15:28:21;14.50;;;2.40;;
5277;SDS011;2662;51.194;6.614;2023-02-01T15:30:52;7.00;;;2.30;;
5277;SDS011;2662;51.194;6.614;2023-02-01T15:33:21;12.97;;;2.57;;
5277;SDS011;2662;51.194;6.614;2023-02-01T15:35:48;16.40;;;2.20;;
5277;SDS011;2662;51.194;6.614;2023-02-01T15:41:06;15.63;;;2.47;;
5277;SDS011;2662;51.194;6.614;2023-02-01T15:43:39;10.90;;;2.10;;
5277;SDS011;2662;51.194;6.614;2023-02-01T15:46:08;16.87;;;3.43;;
5277;SDS011;2662;51.194;6.614;2023-02-01T15:48:39;15.83;;;2.27;;
5277;SDS011;2662;51.194;6.614;2023-02-01T15:51:16;16.70;;;2.63;;
5277;SDS011;2662;51.194;6.614;2023-02-01T15:53:45;14.63;;;2.50;;
5277;SDS011;2662;51.194;6.614;2023-02-01T15:56:15;9.07;;;1.93;;
5277;SDS011;2662;51.194;6.614;2023-02-01T15:58:50;6.90;;;2.63;;